<?xml version="1.0" encoding="UTF-8" standalone="no" ?>
<gpx xmlns="http://www.topografix.com/GPX/1/1" xmlns:xsi="http://www.w3.org/2001/XMLSchema-instance" xsi:schemaLocation="http://www.topografix.com/GPX/1/1 http://www.topografix.com/GPX/1/1/gpx.xsd" version="1.1" creator="VisuGPX - https://www.visugpx.com">
  <metadata>
    <name>20150903 - Chenaillet</name>
    <desc><![CDATA[Sortie géologique au chenaillet]]></desc>
  </metadata>
  <trk>
    <name><![CDATA[20150903 - Chenaillet_1]]></name>
    <trkseg>
      <trkpt lat="44.87827" lon="6.7457">
        <ele>1939</ele>
        <time>2015-09-03T07:12:38.265Z</time>
      </trkpt>
      <trkpt lat="44.87828" lon="6.74569">
        <ele>1942</ele>
        <time>2015-09-03T07:13:38.27Z</time>
      </trkpt>
      <trkpt lat="44.87825" lon="6.74579">
        <ele>1940</ele>
        <time>2015-09-03T07:14:39.265Z</time>
      </trkpt>
      <trkpt lat="44.87825" lon="6.74588">
        <ele>1941</ele>
        <time>2015-09-03T07:15:39.266Z</time>
      </trkpt>
      <trkpt lat="44.87855" lon="6.74612">
        <ele>1948</ele>
        <time>2015-09-03T07:16:40.265Z</time>
      </trkpt>
      <trkpt lat="44.87863" lon="6.74634">
        <ele>1957</ele>
        <time>2015-09-03T07:17:40.265Z</time>
      </trkpt>
      <trkpt lat="44.87892" lon="6.74639">
        <ele>1966</ele>
        <time>2015-09-03T07:18:40.265Z</time>
      </trkpt>
      <trkpt lat="44.87938" lon="6.74647">
        <ele>1977</ele>
        <time>2015-09-03T07:19:30.265Z</time>
      </trkpt>
      <trkpt lat="44.87989" lon="6.74659">
        <ele>1978</ele>
        <time>2015-09-03T07:20:28.265Z</time>
      </trkpt>
      <trkpt lat="44.88035" lon="6.74657">
        <ele>1988</ele>
        <time>2015-09-03T07:21:25.265Z</time>
      </trkpt>
      <trkpt lat="44.88067" lon="6.74625">
        <ele>1991</ele>
        <time>2015-09-03T07:22:25.27Z</time>
      </trkpt>
      <trkpt lat="44.88085" lon="6.74611">
        <ele>1995</ele>
        <time>2015-09-03T07:23:26.264Z</time>
      </trkpt>
      <trkpt lat="44.88088" lon="6.74575">
        <ele>2002</ele>
        <time>2015-09-03T07:24:26.266Z</time>
      </trkpt>
      <trkpt lat="44.881" lon="6.74542">
        <ele>2008</ele>
        <time>2015-09-03T07:25:27.265Z</time>
      </trkpt>
      <trkpt lat="44.88118" lon="6.74504">
        <ele>2016</ele>
        <time>2015-09-03T07:26:27.265Z</time>
      </trkpt>
      <trkpt lat="44.88141" lon="6.74463">
        <ele>2022</ele>
        <time>2015-09-03T07:27:27.265Z</time>
      </trkpt>
      <trkpt lat="44.88154" lon="6.7444">
        <ele>2026</ele>
        <time>2015-09-03T07:28:25.266Z</time>
      </trkpt>
      <trkpt lat="44.8816" lon="6.74422">
        <ele>2026</ele>
        <time>2015-09-03T07:28:36.268Z</time>
      </trkpt>
      <trkpt lat="44.88166" lon="6.74404">
        <ele>2028</ele>
        <time>2015-09-03T07:28:48.266Z</time>
      </trkpt>
      <trkpt lat="44.88171" lon="6.74353">
        <ele>2032</ele>
        <time>2015-09-03T07:29:49.265Z</time>
      </trkpt>
      <trkpt lat="44.88169" lon="6.74319">
        <ele>2039</ele>
        <time>2015-09-03T07:30:49.265Z</time>
      </trkpt>
      <trkpt lat="44.88175" lon="6.74279">
        <ele>2048</ele>
        <time>2015-09-03T07:31:49.266Z</time>
      </trkpt>
      <trkpt lat="44.88191" lon="6.74233">
        <ele>2053</ele>
        <time>2015-09-03T07:32:39.265Z</time>
      </trkpt>
      <trkpt lat="44.88202" lon="6.74199">
        <ele>2059</ele>
        <time>2015-09-03T07:33:11.266Z</time>
      </trkpt>
      <trkpt lat="44.88209" lon="6.74135">
        <ele>2073</ele>
        <time>2015-09-03T07:34:12.265Z</time>
      </trkpt>
      <trkpt lat="44.882" lon="6.74108">
        <ele>2075</ele>
        <time>2015-09-03T07:34:38.265Z</time>
      </trkpt>
      <trkpt lat="44.88204" lon="6.74054">
        <ele>2084</ele>
        <time>2015-09-03T07:35:38.265Z</time>
      </trkpt>
      <trkpt lat="44.88233" lon="6.74016">
        <ele>2092</ele>
        <time>2015-09-03T07:36:38.265Z</time>
      </trkpt>
      <trkpt lat="44.88251" lon="6.73984">
        <ele>2101</ele>
        <time>2015-09-03T07:37:38.27Z</time>
      </trkpt>
      <trkpt lat="44.88254" lon="6.73985">
        <ele>2096</ele>
        <time>2015-09-03T07:38:39.265Z</time>
      </trkpt>
      <trkpt lat="44.88254" lon="6.73987">
        <ele>2097</ele>
        <time>2015-09-03T07:39:39.278Z</time>
      </trkpt>
      <trkpt lat="44.88255" lon="6.73987">
        <ele>2095</ele>
        <time>2015-09-03T07:40:40.264Z</time>
      </trkpt>
      <trkpt lat="44.88263" lon="6.73987">
        <ele>2101</ele>
        <time>2015-09-03T07:41:40.265Z</time>
      </trkpt>
      <trkpt lat="44.88254" lon="6.73993">
        <ele>2100</ele>
        <time>2015-09-03T07:42:40.269Z</time>
      </trkpt>
      <trkpt lat="44.88254" lon="6.73992">
        <ele>2097</ele>
        <time>2015-09-03T07:43:40.269Z</time>
      </trkpt>
      <trkpt lat="44.88255" lon="6.7399">
        <ele>2101</ele>
        <time>2015-09-03T07:44:41.265Z</time>
      </trkpt>
      <trkpt lat="44.88257" lon="6.73966">
        <ele>2100</ele>
        <time>2015-09-03T07:45:05.269Z</time>
      </trkpt>
      <trkpt lat="44.88273" lon="6.7395">
        <ele>2099</ele>
        <time>2015-09-03T07:45:26.265Z</time>
      </trkpt>
      <trkpt lat="44.88309" lon="6.73926">
        <ele>2105</ele>
        <time>2015-09-03T07:46:11.265Z</time>
      </trkpt>
      <trkpt lat="44.88329" lon="6.73912">
        <ele>2107</ele>
        <time>2015-09-03T07:46:34.266Z</time>
      </trkpt>
      <trkpt lat="44.88365" lon="6.7388">
        <ele>2116</ele>
        <time>2015-09-03T07:47:28.265Z</time>
      </trkpt>
      <trkpt lat="44.88392" lon="6.73861">
        <ele>2120</ele>
        <time>2015-09-03T07:48:08.27Z</time>
      </trkpt>
      <trkpt lat="44.88405" lon="6.73854">
        <ele>2121</ele>
        <time>2015-09-03T07:48:21.265Z</time>
      </trkpt>
      <trkpt lat="44.88439" lon="6.7381">
        <ele>2129</ele>
        <time>2015-09-03T07:49:18.27Z</time>
      </trkpt>
      <trkpt lat="44.88475" lon="6.73778">
        <ele>2141</ele>
        <time>2015-09-03T07:50:18.27Z</time>
      </trkpt>
      <trkpt lat="44.88508" lon="6.73757">
        <ele>2153</ele>
        <time>2015-09-03T07:51:19.265Z</time>
      </trkpt>
      <trkpt lat="44.88485" lon="6.73731">
        <ele>2163</ele>
        <time>2015-09-03T07:52:19.265Z</time>
      </trkpt>
      <trkpt lat="44.88491" lon="6.73712">
        <ele>2164</ele>
        <time>2015-09-03T07:52:35.265Z</time>
      </trkpt>
      <trkpt lat="44.88518" lon="6.73669">
        <ele>2171</ele>
        <time>2015-09-03T07:53:35.265Z</time>
      </trkpt>
      <trkpt lat="44.88544" lon="6.73645">
        <ele>2171</ele>
        <time>2015-09-03T07:54:08.27Z</time>
      </trkpt>
      <trkpt lat="44.88578" lon="6.73604">
        <ele>2178</ele>
        <time>2015-09-03T07:55:09.265Z</time>
      </trkpt>
      <trkpt lat="44.88601" lon="6.73552">
        <ele>2183</ele>
        <time>2015-09-03T07:56:09.265Z</time>
      </trkpt>
      <trkpt lat="44.8862" lon="6.73506">
        <ele>2190</ele>
        <time>2015-09-03T07:56:52.268Z</time>
      </trkpt>
      <trkpt lat="44.88638" lon="6.73455">
        <ele>2193</ele>
        <time>2015-09-03T07:57:43.265Z</time>
      </trkpt>
      <trkpt lat="44.88648" lon="6.73413">
        <ele>2194</ele>
        <time>2015-09-03T07:58:28.265Z</time>
      </trkpt>
      <trkpt lat="44.88659" lon="6.73367">
        <ele>2204</ele>
        <time>2015-09-03T07:59:28.265Z</time>
      </trkpt>
      <trkpt lat="44.8867" lon="6.7335">
        <ele>2204</ele>
        <time>2015-09-03T07:59:46.265Z</time>
      </trkpt>
      <trkpt lat="44.88692" lon="6.73294">
        <ele>2211</ele>
        <time>2015-09-03T08:00:46.265Z</time>
      </trkpt>
      <trkpt lat="44.88719" lon="6.73259">
        <ele>2215</ele>
        <time>2015-09-03T08:01:46.265Z</time>
      </trkpt>
      <trkpt lat="44.88738" lon="6.73226">
        <ele>2224</ele>
        <time>2015-09-03T08:02:46.265Z</time>
      </trkpt>
      <trkpt lat="44.88765" lon="6.73182">
        <ele>2230</ele>
        <time>2015-09-03T08:03:46.265Z</time>
      </trkpt>
      <trkpt lat="44.88787" lon="6.7314">
        <ele>2235</ele>
        <time>2015-09-03T08:04:46.265Z</time>
      </trkpt>
      <trkpt lat="44.88824" lon="6.73121">
        <ele>2238</ele>
        <time>2015-09-03T08:05:46.265Z</time>
      </trkpt>
      <trkpt lat="44.88839" lon="6.73122">
        <ele>2246</ele>
        <time>2015-09-03T08:06:46.27Z</time>
      </trkpt>
      <trkpt lat="44.88841" lon="6.7312">
        <ele>2246</ele>
        <time>2015-09-03T08:07:46.27Z</time>
      </trkpt>
      <trkpt lat="44.8884" lon="6.73123">
        <ele>2247</ele>
        <time>2015-09-03T08:08:46.27Z</time>
      </trkpt>
      <trkpt lat="44.8884" lon="6.73123">
        <ele>2247</ele>
        <time>2015-09-03T08:09:46.273Z</time>
      </trkpt>
      <trkpt lat="44.8884" lon="6.73123">
        <ele>2247</ele>
        <time>2015-09-03T08:10:46.275Z</time>
      </trkpt>
      <trkpt lat="44.8884" lon="6.73123">
        <ele>2247</ele>
        <time>2015-09-03T08:11:47.27Z</time>
      </trkpt>
      <trkpt lat="44.8884" lon="6.73123">
        <ele>2247</ele>
        <time>2015-09-03T08:12:47.275Z</time>
      </trkpt>
      <trkpt lat="44.8884" lon="6.73123">
        <ele>2247</ele>
        <time>2015-09-03T08:13:47.356Z</time>
      </trkpt>
      <trkpt lat="44.8884" lon="6.73123">
        <ele>2247</ele>
        <time>2015-09-03T08:14:47.356Z</time>
      </trkpt>
      <trkpt lat="44.8884" lon="6.73123">
        <ele>2247</ele>
        <time>2015-09-03T08:15:48.355Z</time>
      </trkpt>
      <trkpt lat="44.8884" lon="6.73123">
        <ele>2247</ele>
        <time>2015-09-03T08:16:48.356Z</time>
      </trkpt>
      <trkpt lat="44.8884" lon="6.73123">
        <ele>2247</ele>
        <time>2015-09-03T08:17:48.356Z</time>
      </trkpt>
      <trkpt lat="44.8884" lon="6.73123">
        <ele>2247</ele>
        <time>2015-09-03T08:18:48.356Z</time>
      </trkpt>
      <trkpt lat="44.8884" lon="6.73123">
        <ele>2247</ele>
        <time>2015-09-03T08:19:48.359Z</time>
      </trkpt>
      <trkpt lat="44.8884" lon="6.73123">
        <ele>2247</ele>
        <time>2015-09-03T08:20:49.355Z</time>
      </trkpt>
      <trkpt lat="44.8884" lon="6.73123">
        <ele>2247</ele>
        <time>2015-09-03T08:21:49.356Z</time>
      </trkpt>
      <trkpt lat="44.8884" lon="6.73123">
        <ele>2247</ele>
        <time>2015-09-03T08:22:50.356Z</time>
      </trkpt>
      <trkpt lat="44.88846" lon="6.73123">
        <ele>2247</ele>
        <time>2015-09-03T08:23:51.351Z</time>
      </trkpt>
      <trkpt lat="44.88863" lon="6.73118">
        <ele>2259</ele>
        <time>2015-09-03T08:24:51.353Z</time>
      </trkpt>
      <trkpt lat="44.8889" lon="6.73076">
        <ele>2264</ele>
        <time>2015-09-03T08:25:52.35Z</time>
      </trkpt>
      <trkpt lat="44.88912" lon="6.7311">
        <ele>2279</ele>
        <time>2015-09-03T08:26:52.351Z</time>
      </trkpt>
      <trkpt lat="44.88928" lon="6.73097">
        <ele>2286</ele>
        <time>2015-09-03T08:27:52.351Z</time>
      </trkpt>
      <trkpt lat="44.88946" lon="6.73097">
        <ele>2290</ele>
        <time>2015-09-03T08:28:18.351Z</time>
      </trkpt>
      <trkpt lat="44.88962" lon="6.73085">
        <ele>2290</ele>
        <time>2015-09-03T08:28:38.353Z</time>
      </trkpt>
      <trkpt lat="44.88965" lon="6.73066">
        <ele>2289</ele>
        <time>2015-09-03T08:28:53.35Z</time>
      </trkpt>
      <trkpt lat="44.88975" lon="6.73053">
        <ele>2291</ele>
        <time>2015-09-03T08:29:06.35Z</time>
      </trkpt>
      <trkpt lat="44.89002" lon="6.73042">
        <ele>2290</ele>
        <time>2015-09-03T08:29:51.353Z</time>
      </trkpt>
      <trkpt lat="44.89015" lon="6.73035">
        <ele>2289</ele>
        <time>2015-09-03T08:30:03.35Z</time>
      </trkpt>
      <trkpt lat="44.89042" lon="6.73031">
        <ele>2289</ele>
        <time>2015-09-03T08:30:25.353Z</time>
      </trkpt>
      <trkpt lat="44.89055" lon="6.73039">
        <ele>2290</ele>
        <time>2015-09-03T08:30:38.353Z</time>
      </trkpt>
      <trkpt lat="44.89072" lon="6.73062">
        <ele>2292</ele>
        <time>2015-09-03T08:31:00.356Z</time>
      </trkpt>
      <trkpt lat="44.89082" lon="6.73078">
        <ele>2293</ele>
        <time>2015-09-03T08:32:00.359Z</time>
      </trkpt>
      <trkpt lat="44.89081" lon="6.73078">
        <ele>2295</ele>
        <time>2015-09-03T08:33:00.359Z</time>
      </trkpt>
      <trkpt lat="44.89081" lon="6.73077">
        <ele>2295</ele>
        <time>2015-09-03T08:34:00.369Z</time>
      </trkpt>
      <trkpt lat="44.89081" lon="6.73078">
        <ele>2294</ele>
        <time>2015-09-03T08:35:01.358Z</time>
      </trkpt>
      <trkpt lat="44.89081" lon="6.73078">
        <ele>2294</ele>
        <time>2015-09-03T08:36:02.356Z</time>
      </trkpt>
      <trkpt lat="44.89081" lon="6.73078">
        <ele>2294</ele>
        <time>2015-09-03T08:37:03.369Z</time>
      </trkpt>
      <trkpt lat="44.8908" lon="6.73078">
        <ele>2294</ele>
        <time>2015-09-03T08:38:04.36Z</time>
      </trkpt>
      <trkpt lat="44.8908" lon="6.73078">
        <ele>2294</ele>
        <time>2015-09-03T08:39:05.355Z</time>
      </trkpt>
      <trkpt lat="44.89081" lon="6.73078">
        <ele>2294</ele>
        <time>2015-09-03T08:40:05.36Z</time>
      </trkpt>
      <trkpt lat="44.89081" lon="6.73078">
        <ele>2294</ele>
        <time>2015-09-03T08:41:06.356Z</time>
      </trkpt>
      <trkpt lat="44.89084" lon="6.73082">
        <ele>2291</ele>
        <time>2015-09-03T08:45:51.355Z</time>
      </trkpt>
      <trkpt lat="44.89082" lon="6.73082">
        <ele>2291</ele>
        <time>2015-09-03T08:46:51.355Z</time>
      </trkpt>
      <trkpt lat="44.89081" lon="6.73082">
        <ele>2292</ele>
        <time>2015-09-03T08:47:51.366Z</time>
      </trkpt>
      <trkpt lat="44.89081" lon="6.73082">
        <ele>2292</ele>
        <time>2015-09-03T08:48:52.355Z</time>
      </trkpt>
      <trkpt lat="44.89082" lon="6.73082">
        <ele>2292</ele>
        <time>2015-09-03T08:49:52.356Z</time>
      </trkpt>
      <trkpt lat="44.89082" lon="6.73082">
        <ele>2292</ele>
        <time>2015-09-03T08:50:52.363Z</time>
      </trkpt>
      <trkpt lat="44.89082" lon="6.73062">
        <ele>2291</ele>
        <time>2015-09-03T08:51:49.354Z</time>
      </trkpt>
      <trkpt lat="44.89093" lon="6.7304">
        <ele>2291</ele>
        <time>2015-09-03T08:52:14.354Z</time>
      </trkpt>
      <trkpt lat="44.89108" lon="6.73026">
        <ele>2290</ele>
        <time>2015-09-03T08:52:34.355Z</time>
      </trkpt>
      <trkpt lat="44.89122" lon="6.73026">
        <ele>2293</ele>
        <time>2015-09-03T08:52:51.354Z</time>
      </trkpt>
      <trkpt lat="44.8914" lon="6.73017">
        <ele>2290</ele>
        <time>2015-09-03T08:53:07.355Z</time>
      </trkpt>
      <trkpt lat="44.89178" lon="6.73">
        <ele>2298</ele>
        <time>2015-09-03T08:54:07.355Z</time>
      </trkpt>
      <trkpt lat="44.89233" lon="6.73001">
        <ele>2305</ele>
        <time>2015-09-03T08:55:07.355Z</time>
      </trkpt>
      <trkpt lat="44.89247" lon="6.72991">
        <ele>2305</ele>
        <time>2015-09-03T08:55:23.359Z</time>
      </trkpt>
      <trkpt lat="44.8926" lon="6.72987">
        <ele>2306</ele>
        <time>2015-09-03T08:55:34.358Z</time>
      </trkpt>
      <trkpt lat="44.89273" lon="6.7298">
        <ele>2310</ele>
        <time>2015-09-03T08:55:50.361Z</time>
      </trkpt>
      <trkpt lat="44.89295" lon="6.7297">
        <ele>2310</ele>
        <time>2015-09-03T08:56:13.361Z</time>
      </trkpt>
      <trkpt lat="44.89308" lon="6.72964">
        <ele>2314</ele>
        <time>2015-09-03T08:56:27.355Z</time>
      </trkpt>
      <trkpt lat="44.89317" lon="6.72949">
        <ele>2314</ele>
        <time>2015-09-03T08:56:44.353Z</time>
      </trkpt>
      <trkpt lat="44.89336" lon="6.72924">
        <ele>2315</ele>
        <time>2015-09-03T08:57:13.355Z</time>
      </trkpt>
      <trkpt lat="44.89367" lon="6.72896">
        <ele>2324</ele>
        <time>2015-09-03T08:58:13.375Z</time>
      </trkpt>
      <trkpt lat="44.8938" lon="6.72887">
        <ele>2326</ele>
        <time>2015-09-03T08:58:37.354Z</time>
      </trkpt>
      <trkpt lat="44.89411" lon="6.72866">
        <ele>2336</ele>
        <time>2015-09-03T08:59:37.355Z</time>
      </trkpt>
      <trkpt lat="44.89445" lon="6.72834">
        <ele>2343</ele>
        <time>2015-09-03T09:00:28.355Z</time>
      </trkpt>
      <trkpt lat="44.89451" lon="6.72816">
        <ele>2347</ele>
        <time>2015-09-03T09:00:47.355Z</time>
      </trkpt>
      <trkpt lat="44.89488" lon="6.72791">
        <ele>2355</ele>
        <time>2015-09-03T09:01:47.355Z</time>
      </trkpt>
      <trkpt lat="44.89502" lon="6.72796">
        <ele>2356</ele>
        <time>2015-09-03T09:02:04.358Z</time>
      </trkpt>
      <trkpt lat="44.89516" lon="6.72789">
        <ele>2360</ele>
        <time>2015-09-03T09:03:00.355Z</time>
      </trkpt>
      <trkpt lat="44.89524" lon="6.72774">
        <ele>2360</ele>
        <time>2015-09-03T09:04:00.358Z</time>
      </trkpt>
      <trkpt lat="44.89507" lon="6.72754">
        <ele>2364</ele>
        <time>2015-09-03T09:05:00.358Z</time>
      </trkpt>
      <trkpt lat="44.89499" lon="6.72748">
        <ele>2362</ele>
        <time>2015-09-03T09:06:01.358Z</time>
      </trkpt>
      <trkpt lat="44.89499" lon="6.72749">
        <ele>2362</ele>
        <time>2015-09-03T09:07:01.406Z</time>
      </trkpt>
      <trkpt lat="44.89499" lon="6.72749">
        <ele>2362</ele>
        <time>2015-09-03T09:08:02.358Z</time>
      </trkpt>
      <trkpt lat="44.89498" lon="6.72751">
        <ele>2362</ele>
        <time>2015-09-03T09:09:03.356Z</time>
      </trkpt>
      <trkpt lat="44.89498" lon="6.72751">
        <ele>2362</ele>
        <time>2015-09-03T09:10:03.358Z</time>
      </trkpt>
      <trkpt lat="44.89498" lon="6.72751">
        <ele>2362</ele>
        <time>2015-09-03T09:11:03.365Z</time>
      </trkpt>
      <trkpt lat="44.89498" lon="6.72751">
        <ele>2362</ele>
        <time>2015-09-03T09:12:04.355Z</time>
      </trkpt>
      <trkpt lat="44.89498" lon="6.72751">
        <ele>2362</ele>
        <time>2015-09-03T09:13:04.358Z</time>
      </trkpt>
      <trkpt lat="44.89498" lon="6.72751">
        <ele>2362</ele>
        <time>2015-09-03T09:14:04.365Z</time>
      </trkpt>
      <trkpt lat="44.89499" lon="6.72748">
        <ele>2361</ele>
        <time>2015-09-03T09:15:04.366Z</time>
      </trkpt>
      <trkpt lat="44.89499" lon="6.72748">
        <ele>2361</ele>
        <time>2015-09-03T09:16:05.355Z</time>
      </trkpt>
      <trkpt lat="44.89499" lon="6.72748">
        <ele>2361</ele>
        <time>2015-09-03T09:17:05.356Z</time>
      </trkpt>
      <trkpt lat="44.89499" lon="6.72748">
        <ele>2361</ele>
        <time>2015-09-03T09:18:05.36Z</time>
      </trkpt>
      <trkpt lat="44.89499" lon="6.72748">
        <ele>2361</ele>
        <time>2015-09-03T09:19:06.355Z</time>
      </trkpt>
      <trkpt lat="44.89499" lon="6.72748">
        <ele>2361</ele>
        <time>2015-09-03T09:20:06.355Z</time>
      </trkpt>
      <trkpt lat="44.89499" lon="6.72748">
        <ele>2361</ele>
        <time>2015-09-03T09:21:06.356Z</time>
      </trkpt>
      <trkpt lat="44.89499" lon="6.72748">
        <ele>2361</ele>
        <time>2015-09-03T09:22:07.355Z</time>
      </trkpt>
      <trkpt lat="44.89499" lon="6.72748">
        <ele>2361</ele>
        <time>2015-09-03T09:23:07.356Z</time>
      </trkpt>
      <trkpt lat="44.89499" lon="6.72748">
        <ele>2361</ele>
        <time>2015-09-03T09:24:07.356Z</time>
      </trkpt>
      <trkpt lat="44.89499" lon="6.72748">
        <ele>2361</ele>
        <time>2015-09-03T09:25:08.356Z</time>
      </trkpt>
      <trkpt lat="44.89499" lon="6.72748">
        <ele>2361</ele>
        <time>2015-09-03T09:26:08.356Z</time>
      </trkpt>
      <trkpt lat="44.89499" lon="6.72748">
        <ele>2361</ele>
        <time>2015-09-03T09:27:09.355Z</time>
      </trkpt>
      <trkpt lat="44.89499" lon="6.72748">
        <ele>2361</ele>
        <time>2015-09-03T09:28:09.356Z</time>
      </trkpt>
      <trkpt lat="44.89499" lon="6.72748">
        <ele>2361</ele>
        <time>2015-09-03T09:29:10.351Z</time>
      </trkpt>
      <trkpt lat="44.89499" lon="6.72748">
        <ele>2361</ele>
        <time>2015-09-03T09:30:11.35Z</time>
      </trkpt>
      <trkpt lat="44.89499" lon="6.72748">
        <ele>2361</ele>
        <time>2015-09-03T09:31:11.356Z</time>
      </trkpt>
      <trkpt lat="44.89499" lon="6.72748">
        <ele>2361</ele>
        <time>2015-09-03T09:32:12.354Z</time>
      </trkpt>
      <trkpt lat="44.89499" lon="6.72749">
        <ele>2361</ele>
        <time>2015-09-03T09:33:12.354Z</time>
      </trkpt>
      <trkpt lat="44.89499" lon="6.72749">
        <ele>2361</ele>
        <time>2015-09-03T09:34:13.354Z</time>
      </trkpt>
      <trkpt lat="44.89499" lon="6.72752">
        <ele>2360</ele>
        <time>2015-09-03T09:35:14.349Z</time>
      </trkpt>
      <trkpt lat="44.89505" lon="6.72752">
        <ele>2365</ele>
        <time>2015-09-03T09:36:14.445Z</time>
      </trkpt>
      <trkpt lat="44.89508" lon="6.72752">
        <ele>2363</ele>
        <time>2015-09-03T09:37:15.353Z</time>
      </trkpt>
      <trkpt lat="44.89506" lon="6.72754">
        <ele>2366</ele>
        <time>2015-09-03T09:38:15.353Z</time>
      </trkpt>
      <trkpt lat="44.89501" lon="6.72755">
        <ele>2358</ele>
        <time>2015-09-03T09:39:15.355Z</time>
      </trkpt>
      <trkpt lat="44.89513" lon="6.72767">
        <ele>2363</ele>
        <time>2015-09-03T09:39:52.35Z</time>
      </trkpt>
      <trkpt lat="44.89523" lon="6.72781">
        <ele>2364</ele>
        <time>2015-09-03T09:40:04.35Z</time>
      </trkpt>
      <trkpt lat="44.89514" lon="6.72795">
        <ele>2362</ele>
        <time>2015-09-03T09:40:13.35Z</time>
      </trkpt>
      <trkpt lat="44.89505" lon="6.72811">
        <ele>2360</ele>
        <time>2015-09-03T09:40:25.35Z</time>
      </trkpt>
      <trkpt lat="44.89502" lon="6.72829">
        <ele>2356</ele>
        <time>2015-09-03T09:41:25.354Z</time>
      </trkpt>
      <trkpt lat="44.89501" lon="6.72828">
        <ele>2354</ele>
        <time>2015-09-03T09:42:26.354Z</time>
      </trkpt>
      <trkpt lat="44.89504" lon="6.7283">
        <ele>2356</ele>
        <time>2015-09-03T09:43:26.425Z</time>
      </trkpt>
      <trkpt lat="44.89502" lon="6.72828">
        <ele>2354</ele>
        <time>2015-09-03T09:44:27.358Z</time>
      </trkpt>
      <trkpt lat="44.89502" lon="6.72828">
        <ele>2354</ele>
        <time>2015-09-03T09:45:28.351Z</time>
      </trkpt>
      <trkpt lat="44.89502" lon="6.72828">
        <ele>2354</ele>
        <time>2015-09-03T09:46:29.353Z</time>
      </trkpt>
      <trkpt lat="44.89502" lon="6.72828">
        <ele>2354</ele>
        <time>2015-09-03T09:47:30.351Z</time>
      </trkpt>
      <trkpt lat="44.89503" lon="6.72827">
        <ele>2356</ele>
        <time>2015-09-03T09:48:30.353Z</time>
      </trkpt>
      <trkpt lat="44.89503" lon="6.72827">
        <ele>2356</ele>
        <time>2015-09-03T09:49:30.353Z</time>
      </trkpt>
      <trkpt lat="44.89501" lon="6.72826">
        <ele>2354</ele>
        <time>2015-09-03T09:50:30.355Z</time>
      </trkpt>
      <trkpt lat="44.89505" lon="6.72827">
        <ele>2352</ele>
        <time>2015-09-03T09:51:31.353Z</time>
      </trkpt>
      <trkpt lat="44.89504" lon="6.72827">
        <ele>2352</ele>
        <time>2015-09-03T09:52:31.424Z</time>
      </trkpt>
      <trkpt lat="44.89503" lon="6.72828">
        <ele>2353</ele>
        <time>2015-09-03T09:53:32.353Z</time>
      </trkpt>
      <trkpt lat="44.89503" lon="6.72828">
        <ele>2353</ele>
        <time>2015-09-03T09:54:32.36Z</time>
      </trkpt>
      <trkpt lat="44.89503" lon="6.72828">
        <ele>2353</ele>
        <time>2015-09-03T09:55:33.353Z</time>
      </trkpt>
      <trkpt lat="44.89502" lon="6.72826">
        <ele>2356</ele>
        <time>2015-09-03T09:56:34.351Z</time>
      </trkpt>
      <trkpt lat="44.89505" lon="6.72827">
        <ele>2356</ele>
        <time>2015-09-03T09:57:34.354Z</time>
      </trkpt>
      <trkpt lat="44.89498" lon="6.72824">
        <ele>2354</ele>
        <time>2015-09-03T09:58:35.35Z</time>
      </trkpt>
      <trkpt lat="44.89512" lon="6.72803">
        <ele>2358</ele>
        <time>2015-09-03T09:59:35.35Z</time>
      </trkpt>
      <trkpt lat="44.89518" lon="6.72821">
        <ele>2362</ele>
        <time>2015-09-03T09:59:55.35Z</time>
      </trkpt>
      <trkpt lat="44.89518" lon="6.72845">
        <ele>2361</ele>
        <time>2015-09-03T10:00:11.355Z</time>
      </trkpt>
      <trkpt lat="44.89538" lon="6.72892">
        <ele>2365</ele>
        <time>2015-09-03T10:01:12.356Z</time>
      </trkpt>
      <trkpt lat="44.8955" lon="6.72901">
        <ele>2364</ele>
        <time>2015-09-03T10:01:27.349Z</time>
      </trkpt>
      <trkpt lat="44.8956" lon="6.72914">
        <ele>2365</ele>
        <time>2015-09-03T10:01:42.35Z</time>
      </trkpt>
      <trkpt lat="44.89576" lon="6.72916">
        <ele>2374</ele>
        <time>2015-09-03T10:02:42.35Z</time>
      </trkpt>
      <trkpt lat="44.89578" lon="6.72921">
        <ele>2375</ele>
        <time>2015-09-03T10:03:42.353Z</time>
      </trkpt>
      <trkpt lat="44.89576" lon="6.72918">
        <ele>2375</ele>
        <time>2015-09-03T10:04:42.355Z</time>
      </trkpt>
      <trkpt lat="44.89576" lon="6.7292">
        <ele>2374</ele>
        <time>2015-09-03T10:05:43.354Z</time>
      </trkpt>
      <trkpt lat="44.8957" lon="6.72917">
        <ele>2370</ele>
        <time>2015-09-03T10:06:43.355Z</time>
      </trkpt>
      <trkpt lat="44.8957" lon="6.72917">
        <ele>2371</ele>
        <time>2015-09-03T10:07:43.355Z</time>
      </trkpt>
      <trkpt lat="44.8957" lon="6.72918">
        <ele>2371</ele>
        <time>2015-09-03T10:08:43.356Z</time>
      </trkpt>
      <trkpt lat="44.8957" lon="6.72918">
        <ele>2371</ele>
        <time>2015-09-03T10:09:43.356Z</time>
      </trkpt>
      <trkpt lat="44.89568" lon="6.72918">
        <ele>2373</ele>
        <time>2015-09-03T10:10:44.355Z</time>
      </trkpt>
      <trkpt lat="44.89569" lon="6.7292">
        <ele>2372</ele>
        <time>2015-09-03T10:11:44.355Z</time>
      </trkpt>
      <trkpt lat="44.8957" lon="6.7292">
        <ele>2370</ele>
        <time>2015-09-03T10:12:44.355Z</time>
      </trkpt>
      <trkpt lat="44.8957" lon="6.7292">
        <ele>2370</ele>
        <time>2015-09-03T10:13:45.355Z</time>
      </trkpt>
      <trkpt lat="44.89573" lon="6.72921">
        <ele>2368</ele>
        <time>2015-09-03T10:14:45.355Z</time>
      </trkpt>
      <trkpt lat="44.89578" lon="6.72922">
        <ele>2372</ele>
        <time>2015-09-03T10:15:46.351Z</time>
      </trkpt>
      <trkpt lat="44.89589" lon="6.72917">
        <ele>2377</ele>
        <time>2015-09-03T10:16:46.355Z</time>
      </trkpt>
      <trkpt lat="44.89587" lon="6.72919">
        <ele>2379</ele>
        <time>2015-09-03T10:17:46.359Z</time>
      </trkpt>
      <trkpt lat="44.89599" lon="6.72939">
        <ele>2380</ele>
        <time>2015-09-03T10:18:46.426Z</time>
      </trkpt>
      <trkpt lat="44.89617" lon="6.72947">
        <ele>2387</ele>
        <time>2015-09-03T10:19:10.425Z</time>
      </trkpt>
      <trkpt lat="44.89626" lon="6.72956">
        <ele>2390</ele>
        <time>2015-09-03T10:20:10.428Z</time>
      </trkpt>
      <trkpt lat="44.89627" lon="6.72956">
        <ele>2389</ele>
        <time>2015-09-03T10:21:10.429Z</time>
      </trkpt>
      <trkpt lat="44.89628" lon="6.72958">
        <ele>2389</ele>
        <time>2015-09-03T10:22:11.425Z</time>
      </trkpt>
      <trkpt lat="44.89627" lon="6.72957">
        <ele>2391</ele>
        <time>2015-09-03T10:23:11.43Z</time>
      </trkpt>
      <trkpt lat="44.89628" lon="6.72956">
        <ele>2392</ele>
        <time>2015-09-03T10:24:12.429Z</time>
      </trkpt>
      <trkpt lat="44.89628" lon="6.72956">
        <ele>2392</ele>
        <time>2015-09-03T10:25:13.428Z</time>
      </trkpt>
      <trkpt lat="44.89628" lon="6.72956">
        <ele>2392</ele>
        <time>2015-09-03T10:26:13.428Z</time>
      </trkpt>
      <trkpt lat="44.89628" lon="6.72956">
        <ele>2392</ele>
        <time>2015-09-03T10:27:13.429Z</time>
      </trkpt>
      <trkpt lat="44.89628" lon="6.72956">
        <ele>2392</ele>
        <time>2015-09-03T10:28:13.429Z</time>
      </trkpt>
      <trkpt lat="44.89628" lon="6.72956">
        <ele>2392</ele>
        <time>2015-09-03T10:29:14.428Z</time>
      </trkpt>
      <trkpt lat="44.89628" lon="6.72956">
        <ele>2392</ele>
        <time>2015-09-03T10:30:15.429Z</time>
      </trkpt>
      <trkpt lat="44.89628" lon="6.72956">
        <ele>2392</ele>
        <time>2015-09-03T10:31:15.429Z</time>
      </trkpt>
      <trkpt lat="44.89627" lon="6.72956">
        <ele>2392</ele>
        <time>2015-09-03T10:32:16.426Z</time>
      </trkpt>
      <trkpt lat="44.89627" lon="6.72956">
        <ele>2392</ele>
        <time>2015-09-03T10:33:16.426Z</time>
      </trkpt>
      <trkpt lat="44.89627" lon="6.72956">
        <ele>2392</ele>
        <time>2015-09-03T10:34:16.428Z</time>
      </trkpt>
      <trkpt lat="44.89627" lon="6.72956">
        <ele>2392</ele>
        <time>2015-09-03T10:35:16.429Z</time>
      </trkpt>
      <trkpt lat="44.89627" lon="6.72956">
        <ele>2392</ele>
        <time>2015-09-03T10:36:17.426Z</time>
      </trkpt>
      <trkpt lat="44.89627" lon="6.72956">
        <ele>2392</ele>
        <time>2015-09-03T10:37:17.426Z</time>
      </trkpt>
      <trkpt lat="44.89627" lon="6.72956">
        <ele>2392</ele>
        <time>2015-09-03T10:38:17.426Z</time>
      </trkpt>
      <trkpt lat="44.89627" lon="6.72956">
        <ele>2394</ele>
        <time>2015-09-03T10:39:17.426Z</time>
      </trkpt>
      <trkpt lat="44.89626" lon="6.72955">
        <ele>2397</ele>
        <time>2015-09-03T10:40:17.429Z</time>
      </trkpt>
      <trkpt lat="44.89626" lon="6.72955">
        <ele>2397</ele>
        <time>2015-09-03T10:41:18.426Z</time>
      </trkpt>
      <trkpt lat="44.89626" lon="6.72955">
        <ele>2397</ele>
        <time>2015-09-03T10:42:18.435Z</time>
      </trkpt>
      <trkpt lat="44.89626" lon="6.72956">
        <ele>2397</ele>
        <time>2015-09-03T10:43:19.428Z</time>
      </trkpt>
      <trkpt lat="44.89626" lon="6.72956">
        <ele>2397</ele>
        <time>2015-09-03T10:44:20.428Z</time>
      </trkpt>
      <trkpt lat="44.89625" lon="6.72953">
        <ele>2396</ele>
        <time>2015-09-03T10:45:20.429Z</time>
      </trkpt>
      <trkpt lat="44.89625" lon="6.72953">
        <ele>2396</ele>
        <time>2015-09-03T10:46:20.429Z</time>
      </trkpt>
      <trkpt lat="44.89625" lon="6.72954">
        <ele>2396</ele>
        <time>2015-09-03T10:47:21.429Z</time>
      </trkpt>
      <trkpt lat="44.89625" lon="6.72954">
        <ele>2396</ele>
        <time>2015-09-03T10:48:22.426Z</time>
      </trkpt>
      <trkpt lat="44.89625" lon="6.72954">
        <ele>2396</ele>
        <time>2015-09-03T10:49:22.428Z</time>
      </trkpt>
      <trkpt lat="44.89625" lon="6.72954">
        <ele>2395</ele>
        <time>2015-09-03T10:50:22.429Z</time>
      </trkpt>
      <trkpt lat="44.89625" lon="6.72954">
        <ele>2395</ele>
        <time>2015-09-03T10:51:22.431Z</time>
      </trkpt>
      <trkpt lat="44.89625" lon="6.72955">
        <ele>2395</ele>
        <time>2015-09-03T10:52:23.425Z</time>
      </trkpt>
      <trkpt lat="44.8962" lon="6.72947">
        <ele>2396</ele>
        <time>2015-09-03T10:53:23.425Z</time>
      </trkpt>
      <trkpt lat="44.89624" lon="6.72972">
        <ele>2393</ele>
        <time>2015-09-03T10:54:24.093Z</time>
      </trkpt>
      <trkpt lat="44.89635" lon="6.72985">
        <ele>2403</ele>
        <time>2015-09-03T10:55:24.095Z</time>
      </trkpt>
      <trkpt lat="44.89646" lon="6.73001">
        <ele>2407</ele>
        <time>2015-09-03T10:56:24.095Z</time>
      </trkpt>
      <trkpt lat="44.89661" lon="6.73018">
        <ele>2401</ele>
        <time>2015-09-03T10:57:25.091Z</time>
      </trkpt>
      <trkpt lat="44.8967" lon="6.73043">
        <ele>2408</ele>
        <time>2015-09-03T10:58:25.099Z</time>
      </trkpt>
      <trkpt lat="44.89684" lon="6.73067">
        <ele>2410</ele>
        <time>2015-09-03T10:59:25.099Z</time>
      </trkpt>
      <trkpt lat="44.89697" lon="6.73091">
        <ele>2424</ele>
        <time>2015-09-03T11:00:26.093Z</time>
      </trkpt>
      <trkpt lat="44.89713" lon="6.73129">
        <ele>2420</ele>
        <time>2015-09-03T11:01:26.395Z</time>
      </trkpt>
      <trkpt lat="44.89725" lon="6.73182">
        <ele>2420</ele>
        <time>2015-09-03T11:02:27.399Z</time>
      </trkpt>
      <trkpt lat="44.8975" lon="6.73221">
        <ele>2424</ele>
        <time>2015-09-03T11:03:28.391Z</time>
      </trkpt>
      <trkpt lat="44.8976" lon="6.73257">
        <ele>2429</ele>
        <time>2015-09-03T11:04:24.393Z</time>
      </trkpt>
      <trkpt lat="44.89779" lon="6.733">
        <ele>2435</ele>
        <time>2015-09-03T11:05:25.39Z</time>
      </trkpt>
      <trkpt lat="44.89774" lon="6.73327">
        <ele>2446</ele>
        <time>2015-09-03T11:06:25.395Z</time>
      </trkpt>
      <trkpt lat="44.8978" lon="6.73368">
        <ele>2450</ele>
        <time>2015-09-03T11:07:26.395Z</time>
      </trkpt>
      <trkpt lat="44.89789" lon="6.73401">
        <ele>2461</ele>
        <time>2015-09-03T11:08:27.391Z</time>
      </trkpt>
      <trkpt lat="44.89775" lon="6.73418">
        <ele>2461</ele>
        <time>2015-09-03T11:09:27.396Z</time>
      </trkpt>
      <trkpt lat="44.89778" lon="6.73417">
        <ele>2463</ele>
        <time>2015-09-03T11:10:28.395Z</time>
      </trkpt>
      <trkpt lat="44.89778" lon="6.73417">
        <ele>2463</ele>
        <time>2015-09-03T11:11:29.394Z</time>
      </trkpt>
      <trkpt lat="44.89778" lon="6.73417">
        <ele>2463</ele>
        <time>2015-09-03T11:12:29.394Z</time>
      </trkpt>
      <trkpt lat="44.89778" lon="6.73417">
        <ele>2463</ele>
        <time>2015-09-03T11:13:29.394Z</time>
      </trkpt>
      <trkpt lat="44.89778" lon="6.73417">
        <ele>2463</ele>
        <time>2015-09-03T11:14:29.395Z</time>
      </trkpt>
      <trkpt lat="44.89778" lon="6.73417">
        <ele>2463</ele>
        <time>2015-09-03T11:15:29.395Z</time>
      </trkpt>
      <trkpt lat="44.89778" lon="6.73417">
        <ele>2463</ele>
        <time>2015-09-03T11:16:29.948Z</time>
      </trkpt>
      <trkpt lat="44.89778" lon="6.73417">
        <ele>2463</ele>
        <time>2015-09-03T11:17:30.94Z</time>
      </trkpt>
      <trkpt lat="44.89778" lon="6.73417">
        <ele>2463</ele>
        <time>2015-09-03T11:18:31.939Z</time>
      </trkpt>
      <trkpt lat="44.89778" lon="6.73417">
        <ele>2463</ele>
        <time>2015-09-03T11:19:31.943Z</time>
      </trkpt>
      <trkpt lat="44.89778" lon="6.73417">
        <ele>2463</ele>
        <time>2015-09-03T11:20:32.944Z</time>
      </trkpt>
      <trkpt lat="44.89778" lon="6.73417">
        <ele>2463</ele>
        <time>2015-09-03T11:21:33.944Z</time>
      </trkpt>
      <trkpt lat="44.89776" lon="6.73418">
        <ele>2458</ele>
        <time>2015-09-03T11:22:33.944Z</time>
      </trkpt>
      <trkpt lat="44.89774" lon="6.73412">
        <ele>2457</ele>
        <time>2015-09-03T11:23:33.944Z</time>
      </trkpt>
      <trkpt lat="44.89775" lon="6.73413">
        <ele>2458</ele>
        <time>2015-09-03T11:24:34.946Z</time>
      </trkpt>
      <trkpt lat="44.89777" lon="6.73414">
        <ele>2457</ele>
        <time>2015-09-03T11:25:35.943Z</time>
      </trkpt>
      <trkpt lat="44.89773" lon="6.73411">
        <ele>2458</ele>
        <time>2015-09-03T11:26:36.945Z</time>
      </trkpt>
      <trkpt lat="44.89772" lon="6.73414">
        <ele>2462</ele>
        <time>2015-09-03T11:27:36.945Z</time>
      </trkpt>
      <trkpt lat="44.89776" lon="6.73432">
        <ele>2465</ele>
        <time>2015-09-03T11:28:37.938Z</time>
      </trkpt>
      <trkpt lat="44.89801" lon="6.73449">
        <ele>2469</ele>
        <time>2015-09-03T11:29:37.939Z</time>
      </trkpt>
      <trkpt lat="44.89805" lon="6.7348">
        <ele>2479</ele>
        <time>2015-09-03T11:30:38.938Z</time>
      </trkpt>
      <trkpt lat="44.89804" lon="6.73504">
        <ele>2489</ele>
        <time>2015-09-03T11:31:38.939Z</time>
      </trkpt>
      <trkpt lat="44.89811" lon="6.73516">
        <ele>2494</ele>
        <time>2015-09-03T11:32:39.936Z</time>
      </trkpt>
      <trkpt lat="44.89811" lon="6.73513">
        <ele>2501</ele>
        <time>2015-09-03T11:33:39.943Z</time>
      </trkpt>
      <trkpt lat="44.89815" lon="6.73517">
        <ele>2496</ele>
        <time>2015-09-03T11:34:40.943Z</time>
      </trkpt>
      <trkpt lat="44.8981" lon="6.73516">
        <ele>2498</ele>
        <time>2015-09-03T11:35:40.943Z</time>
      </trkpt>
      <trkpt lat="44.8981" lon="6.73516">
        <ele>2498</ele>
        <time>2015-09-03T11:36:40.944Z</time>
      </trkpt>
      <trkpt lat="44.8981" lon="6.73516">
        <ele>2498</ele>
        <time>2015-09-03T11:37:41.939Z</time>
      </trkpt>
      <trkpt lat="44.8981" lon="6.73516">
        <ele>2498</ele>
        <time>2015-09-03T11:38:41.939Z</time>
      </trkpt>
      <trkpt lat="44.8981" lon="6.73516">
        <ele>2498</ele>
        <time>2015-09-03T11:39:41.945Z</time>
      </trkpt>
      <trkpt lat="44.8981" lon="6.73516">
        <ele>2498</ele>
        <time>2015-09-03T11:40:42.94Z</time>
      </trkpt>
      <trkpt lat="44.8981" lon="6.73516">
        <ele>2498</ele>
        <time>2015-09-03T11:41:42.94Z</time>
      </trkpt>
      <trkpt lat="44.8981" lon="6.73516">
        <ele>2498</ele>
        <time>2015-09-03T11:42:42.943Z</time>
      </trkpt>
      <trkpt lat="44.8981" lon="6.73516">
        <ele>2498</ele>
        <time>2015-09-03T11:43:43.94Z</time>
      </trkpt>
      <trkpt lat="44.8981" lon="6.73516">
        <ele>2498</ele>
        <time>2015-09-03T11:44:43.95Z</time>
      </trkpt>
      <trkpt lat="44.8981" lon="6.73516">
        <ele>2498</ele>
        <time>2015-09-03T11:45:43.95Z</time>
      </trkpt>
      <trkpt lat="44.8981" lon="6.73516">
        <ele>2498</ele>
        <time>2015-09-03T11:46:43.95Z</time>
      </trkpt>
      <trkpt lat="44.8981" lon="6.73516">
        <ele>2498</ele>
        <time>2015-09-03T11:47:44.95Z</time>
      </trkpt>
      <trkpt lat="44.8981" lon="6.73516">
        <ele>2498</ele>
        <time>2015-09-03T11:48:44.951Z</time>
      </trkpt>
      <trkpt lat="44.8981" lon="6.73516">
        <ele>2498</ele>
        <time>2015-09-03T11:49:45.949Z</time>
      </trkpt>
      <trkpt lat="44.8981" lon="6.73516">
        <ele>2498</ele>
        <time>2015-09-03T11:50:45.95Z</time>
      </trkpt>
      <trkpt lat="44.89804" lon="6.73515">
        <ele>2500</ele>
        <time>2015-09-03T11:51:45.954Z</time>
      </trkpt>
      <trkpt lat="44.89797" lon="6.73517">
        <ele>2495</ele>
        <time>2015-09-03T11:52:46.949Z</time>
      </trkpt>
      <trkpt lat="44.89779" lon="6.73539">
        <ele>2501</ele>
        <time>2015-09-03T11:53:33.95Z</time>
      </trkpt>
      <trkpt lat="44.89774" lon="6.73557">
        <ele>2500</ele>
        <time>2015-09-03T11:53:45.946Z</time>
      </trkpt>
      <trkpt lat="44.89786" lon="6.73606">
        <ele>2506</ele>
        <time>2015-09-03T11:54:45.953Z</time>
      </trkpt>
      <trkpt lat="44.898" lon="6.73565">
        <ele>2514</ele>
        <time>2015-09-03T11:55:45.963Z</time>
      </trkpt>
      <trkpt lat="44.89809" lon="6.73576">
        <ele>2525</ele>
        <time>2015-09-03T11:56:45.963Z</time>
      </trkpt>
      <trkpt lat="44.8982" lon="6.73606">
        <ele>2530</ele>
        <time>2015-09-03T11:57:45.963Z</time>
      </trkpt>
      <trkpt lat="44.89824" lon="6.73624">
        <ele>2532</ele>
        <time>2015-09-03T11:58:00.965Z</time>
      </trkpt>
      <trkpt lat="44.89837" lon="6.73632">
        <ele>2535</ele>
        <time>2015-09-03T11:58:18.966Z</time>
      </trkpt>
      <trkpt lat="44.89863" lon="6.73635">
        <ele>2539</ele>
        <time>2015-09-03T11:58:47.97Z</time>
      </trkpt>
      <trkpt lat="44.89882" lon="6.73646">
        <ele>2538</ele>
        <time>2015-09-03T11:59:20.963Z</time>
      </trkpt>
      <trkpt lat="44.89877" lon="6.73679">
        <ele>2542</ele>
        <time>2015-09-03T11:59:50.965Z</time>
      </trkpt>
      <trkpt lat="44.89887" lon="6.73692">
        <ele>2546</ele>
        <time>2015-09-03T12:00:05.964Z</time>
      </trkpt>
      <trkpt lat="44.89922" lon="6.73738">
        <ele>2554</ele>
        <time>2015-09-03T12:00:56.963Z</time>
      </trkpt>
      <trkpt lat="44.89917" lon="6.73689">
        <ele>2563</ele>
        <time>2015-09-03T12:01:56.963Z</time>
      </trkpt>
      <trkpt lat="44.89933" lon="6.73715">
        <ele>2566</ele>
        <time>2015-09-03T12:02:21.963Z</time>
      </trkpt>
      <trkpt lat="44.89945" lon="6.73745">
        <ele>2568</ele>
        <time>2015-09-03T12:02:48.964Z</time>
      </trkpt>
      <trkpt lat="44.89959" lon="6.73762">
        <ele>2576</ele>
        <time>2015-09-03T12:03:49.961Z</time>
      </trkpt>
      <trkpt lat="44.89967" lon="6.73801">
        <ele>2579</ele>
        <time>2015-09-03T12:04:49.974Z</time>
      </trkpt>
      <trkpt lat="44.8998" lon="6.73851">
        <ele>2591</ele>
        <time>2015-09-03T12:05:50.965Z</time>
      </trkpt>
      <trkpt lat="44.8999" lon="6.73812">
        <ele>2600</ele>
        <time>2015-09-03T12:06:51.136Z</time>
      </trkpt>
      <trkpt lat="44.90001" lon="6.738">
        <ele>2603</ele>
        <time>2015-09-03T12:07:11.139Z</time>
      </trkpt>
      <trkpt lat="44.90031" lon="6.73819">
        <ele>2609</ele>
        <time>2015-09-03T12:08:11.14Z</time>
      </trkpt>
      <trkpt lat="44.90059" lon="6.73821">
        <ele>2623</ele>
        <time>2015-09-03T12:09:12.139Z</time>
      </trkpt>
      <trkpt lat="44.90057" lon="6.73847">
        <ele>2632</ele>
        <time>2015-09-03T12:10:12.14Z</time>
      </trkpt>
      <trkpt lat="44.90074" lon="6.7386">
        <ele>2641</ele>
        <time>2015-09-03T12:11:12.14Z</time>
      </trkpt>
      <trkpt lat="44.9009" lon="6.73876">
        <ele>2644</ele>
        <time>2015-09-03T12:11:45.139Z</time>
      </trkpt>
      <trkpt lat="44.90112" lon="6.73924">
        <ele>2644</ele>
        <time>2015-09-03T12:12:34.969Z</time>
      </trkpt>
      <trkpt lat="44.90097" lon="6.73967">
        <ele>2654</ele>
        <time>2015-09-03T12:13:35.964Z</time>
      </trkpt>
      <trkpt lat="44.90114" lon="6.74003">
        <ele>2663</ele>
        <time>2015-09-03T12:14:36.1Z</time>
      </trkpt>
      <trkpt lat="44.90127" lon="6.74013">
        <ele>2665</ele>
        <time>2015-09-03T12:14:51.098Z</time>
      </trkpt>
      <trkpt lat="44.9016" lon="6.7403">
        <ele>2675</ele>
        <time>2015-09-03T12:15:51.099Z</time>
      </trkpt>
      <trkpt lat="44.90179" lon="6.74041">
        <ele>2684</ele>
        <time>2015-09-03T12:16:51.1Z</time>
      </trkpt>
      <trkpt lat="44.90202" lon="6.74055">
        <ele>2695</ele>
        <time>2015-09-03T12:17:51.101Z</time>
      </trkpt>
      <trkpt lat="44.90221" lon="6.7405">
        <ele>2698</ele>
        <time>2015-09-03T12:18:52.103Z</time>
      </trkpt>
      <trkpt lat="44.90234" lon="6.74051">
        <ele>2700</ele>
        <time>2015-09-03T12:19:53.1Z</time>
      </trkpt>
      <trkpt lat="44.90238" lon="6.74055">
        <ele>2700</ele>
        <time>2015-09-03T12:20:53.1Z</time>
      </trkpt>
      <trkpt lat="44.90223" lon="6.74053">
        <ele>2700</ele>
        <time>2015-09-03T12:21:53.796Z</time>
      </trkpt>
      <trkpt lat="44.90225" lon="6.7405">
        <ele>2703</ele>
        <time>2015-09-03T12:22:54.793Z</time>
      </trkpt>
      <trkpt lat="44.90227" lon="6.74052">
        <ele>2700</ele>
        <time>2015-09-03T12:23:55.786Z</time>
      </trkpt>
      <trkpt lat="44.90238" lon="6.74045">
        <ele>2701</ele>
        <time>2015-09-03T12:24:55.786Z</time>
      </trkpt>
      <trkpt lat="44.9024" lon="6.7405">
        <ele>2700</ele>
        <time>2015-09-03T12:25:55.79Z</time>
      </trkpt>
      <trkpt lat="44.90241" lon="6.7405">
        <ele>2701</ele>
        <time>2015-09-03T12:26:55.798Z</time>
      </trkpt>
      <trkpt lat="44.90241" lon="6.74047">
        <ele>2705</ele>
        <time>2015-09-03T12:27:56.788Z</time>
      </trkpt>
      <trkpt lat="44.90246" lon="6.74042">
        <ele>2700</ele>
        <time>2015-09-03T12:28:57.79Z</time>
      </trkpt>
      <trkpt lat="44.90239" lon="6.74049">
        <ele>2704</ele>
        <time>2015-09-03T12:29:58.786Z</time>
      </trkpt>
      <trkpt lat="44.90238" lon="6.74065">
        <ele>2698</ele>
        <time>2015-09-03T12:30:59.784Z</time>
      </trkpt>
      <trkpt lat="44.9025" lon="6.74065">
        <ele>2695</ele>
        <time>2015-09-03T12:31:59.789Z</time>
      </trkpt>
      <trkpt lat="44.90264" lon="6.7407">
        <ele>2687</ele>
        <time>2015-09-03T12:32:58.788Z</time>
      </trkpt>
      <trkpt lat="44.9026" lon="6.74091">
        <ele>2683</ele>
        <time>2015-09-03T12:33:12.785Z</time>
      </trkpt>
      <trkpt lat="44.90251" lon="6.74145">
        <ele>2672</ele>
        <time>2015-09-03T12:34:00.789Z</time>
      </trkpt>
      <trkpt lat="44.90278" lon="6.74155">
        <ele>2658</ele>
        <time>2015-09-03T12:34:54.788Z</time>
      </trkpt>
      <trkpt lat="44.90274" lon="6.74178">
        <ele>2657</ele>
        <time>2015-09-03T12:35:13.388Z</time>
      </trkpt>
      <trkpt lat="44.90265" lon="6.74197">
        <ele>2655</ele>
        <time>2015-09-03T12:35:29.385Z</time>
      </trkpt>
      <trkpt lat="44.90279" lon="6.74193">
        <ele>2648</ele>
        <time>2015-09-03T12:35:46.385Z</time>
      </trkpt>
      <trkpt lat="44.90281" lon="6.74213">
        <ele>2642</ele>
        <time>2015-09-03T12:36:14.381Z</time>
      </trkpt>
      <trkpt lat="44.90259" lon="6.74273">
        <ele>2630</ele>
        <time>2015-09-03T12:37:14.384Z</time>
      </trkpt>
      <trkpt lat="44.90272" lon="6.74266">
        <ele>2625</ele>
        <time>2015-09-03T12:37:36.381Z</time>
      </trkpt>
      <trkpt lat="44.90296" lon="6.74262">
        <ele>2613</ele>
        <time>2015-09-03T12:38:15.385Z</time>
      </trkpt>
      <trkpt lat="44.9031" lon="6.74263">
        <ele>2608</ele>
        <time>2015-09-03T12:38:31.384Z</time>
      </trkpt>
      <trkpt lat="44.90322" lon="6.74275">
        <ele>2603</ele>
        <time>2015-09-03T12:39:00.385Z</time>
      </trkpt>
      <trkpt lat="44.90314" lon="6.7429">
        <ele>2602</ele>
        <time>2015-09-03T12:39:14.384Z</time>
      </trkpt>
      <trkpt lat="44.90327" lon="6.74296">
        <ele>2597</ele>
        <time>2015-09-03T12:39:47.383Z</time>
      </trkpt>
      <trkpt lat="44.90326" lon="6.74315">
        <ele>2592</ele>
        <time>2015-09-03T12:40:07.384Z</time>
      </trkpt>
      <trkpt lat="44.90304" lon="6.7437">
        <ele>2580</ele>
        <time>2015-09-03T12:41:07.385Z</time>
      </trkpt>
      <trkpt lat="44.90297" lon="6.74405">
        <ele>2572</ele>
        <time>2015-09-03T12:41:41.383Z</time>
      </trkpt>
      <trkpt lat="44.90294" lon="6.74424">
        <ele>2570</ele>
        <time>2015-09-03T12:41:56.385Z</time>
      </trkpt>
      <trkpt lat="44.90289" lon="6.7445">
        <ele>2566</ele>
        <time>2015-09-03T12:42:11.39Z</time>
      </trkpt>
      <trkpt lat="44.90293" lon="6.74514">
        <ele>2574</ele>
        <time>2015-09-03T12:43:08.383Z</time>
      </trkpt>
      <trkpt lat="44.90304" lon="6.74536">
        <ele>2578</ele>
        <time>2015-09-03T12:44:08.388Z</time>
      </trkpt>
      <trkpt lat="44.90313" lon="6.74551">
        <ele>2584</ele>
        <time>2015-09-03T12:44:44.381Z</time>
      </trkpt>
      <trkpt lat="44.90332" lon="6.74605">
        <ele>2587</ele>
        <time>2015-09-03T12:45:31.384Z</time>
      </trkpt>
      <trkpt lat="44.90346" lon="6.74621">
        <ele>2581</ele>
        <time>2015-09-03T12:45:47.383Z</time>
      </trkpt>
      <trkpt lat="44.90355" lon="6.74606">
        <ele>2584</ele>
        <time>2015-09-03T12:46:00.383Z</time>
      </trkpt>
      <trkpt lat="44.90358" lon="6.74612">
        <ele>2581</ele>
        <time>2015-09-03T12:47:00.384Z</time>
      </trkpt>
      <trkpt lat="44.90353" lon="6.74632">
        <ele>2580</ele>
        <time>2015-09-03T12:47:18.383Z</time>
      </trkpt>
      <trkpt lat="44.9036" lon="6.74651">
        <ele>2578</ele>
        <time>2015-09-03T12:47:32.381Z</time>
      </trkpt>
      <trkpt lat="44.90374" lon="6.74673">
        <ele>2575</ele>
        <time>2015-09-03T12:47:53.383Z</time>
      </trkpt>
      <trkpt lat="44.90384" lon="6.74686">
        <ele>2571</ele>
        <time>2015-09-03T12:48:08.383Z</time>
      </trkpt>
      <trkpt lat="44.90383" lon="6.74719">
        <ele>2573</ele>
        <time>2015-09-03T12:48:50.386Z</time>
      </trkpt>
      <trkpt lat="44.90393" lon="6.74733">
        <ele>2573</ele>
        <time>2015-09-03T12:49:04.384Z</time>
      </trkpt>
      <trkpt lat="44.90409" lon="6.74765">
        <ele>2568</ele>
        <time>2015-09-03T12:49:42.383Z</time>
      </trkpt>
      <trkpt lat="44.90403" lon="6.74782">
        <ele>2566</ele>
        <time>2015-09-03T12:49:57.383Z</time>
      </trkpt>
      <trkpt lat="44.90388" lon="6.74782">
        <ele>2567</ele>
        <time>2015-09-03T12:50:15.385Z</time>
      </trkpt>
      <trkpt lat="44.90366" lon="6.74785">
        <ele>2563</ele>
        <time>2015-09-03T12:50:55.388Z</time>
      </trkpt>
      <trkpt lat="44.90375" lon="6.748">
        <ele>2558</ele>
        <time>2015-09-03T12:51:55.395Z</time>
      </trkpt>
      <trkpt lat="44.90367" lon="6.74791">
        <ele>2564</ele>
        <time>2015-09-03T12:52:56.385Z</time>
      </trkpt>
      <trkpt lat="44.90367" lon="6.74791">
        <ele>2564</ele>
        <time>2015-09-03T12:53:56.391Z</time>
      </trkpt>
      <trkpt lat="44.90367" lon="6.74791">
        <ele>2564</ele>
        <time>2015-09-03T12:54:57.394Z</time>
      </trkpt>
      <trkpt lat="44.90367" lon="6.74791">
        <ele>2564</ele>
        <time>2015-09-03T12:55:58.386Z</time>
      </trkpt>
      <trkpt lat="44.90364" lon="6.74779">
        <ele>2562</ele>
        <time>2015-09-03T12:56:59.383Z</time>
      </trkpt>
      <trkpt lat="44.90349" lon="6.74754">
        <ele>2557</ele>
        <time>2015-09-03T12:57:20.39Z</time>
      </trkpt>
      <trkpt lat="44.90337" lon="6.74762">
        <ele>2549</ele>
        <time>2015-09-03T12:57:39.385Z</time>
      </trkpt>
      <trkpt lat="44.90326" lon="6.74778">
        <ele>2547</ele>
        <time>2015-09-03T12:58:00.385Z</time>
      </trkpt>
      <trkpt lat="44.90313" lon="6.74749">
        <ele>2539</ele>
        <time>2015-09-03T12:58:27.386Z</time>
      </trkpt>
      <trkpt lat="44.90304" lon="6.74765">
        <ele>2533</ele>
        <time>2015-09-03T12:58:48.384Z</time>
      </trkpt>
      <trkpt lat="44.90289" lon="6.74754">
        <ele>2526</ele>
        <time>2015-09-03T12:59:07.381Z</time>
      </trkpt>
      <trkpt lat="44.90274" lon="6.74747">
        <ele>2518</ele>
        <time>2015-09-03T12:59:28.381Z</time>
      </trkpt>
      <trkpt lat="44.90263" lon="6.74736">
        <ele>2517</ele>
        <time>2015-09-03T12:59:38.381Z</time>
      </trkpt>
      <trkpt lat="44.9025" lon="6.7473">
        <ele>2512</ele>
        <time>2015-09-03T12:59:48.389Z</time>
      </trkpt>
      <trkpt lat="44.90247" lon="6.74749">
        <ele>2510</ele>
        <time>2015-09-03T12:59:59.384Z</time>
      </trkpt>
      <trkpt lat="44.90229" lon="6.74765">
        <ele>2504</ele>
        <time>2015-09-03T13:00:14.394Z</time>
      </trkpt>
      <trkpt lat="44.90214" lon="6.74776">
        <ele>2501</ele>
        <time>2015-09-03T13:00:25.39Z</time>
      </trkpt>
      <trkpt lat="44.90213" lon="6.74755">
        <ele>2501</ele>
        <time>2015-09-03T13:00:35.386Z</time>
      </trkpt>
      <trkpt lat="44.90214" lon="6.74732">
        <ele>2500</ele>
        <time>2015-09-03T13:00:48.381Z</time>
      </trkpt>
      <trkpt lat="44.90215" lon="6.74712">
        <ele>2496</ele>
        <time>2015-09-03T13:00:57.385Z</time>
      </trkpt>
      <trkpt lat="44.90203" lon="6.74698">
        <ele>2494</ele>
        <time>2015-09-03T13:01:05.385Z</time>
      </trkpt>
      <trkpt lat="44.9019" lon="6.74683">
        <ele>2490</ele>
        <time>2015-09-03T13:01:18.383Z</time>
      </trkpt>
      <trkpt lat="44.9018" lon="6.74667">
        <ele>2488</ele>
        <time>2015-09-03T13:01:29.384Z</time>
      </trkpt>
      <trkpt lat="44.90163" lon="6.74655">
        <ele>2484</ele>
        <time>2015-09-03T13:01:43.383Z</time>
      </trkpt>
      <trkpt lat="44.90155" lon="6.74674">
        <ele>2480</ele>
        <time>2015-09-03T13:01:54.383Z</time>
      </trkpt>
      <trkpt lat="44.90135" lon="6.74726">
        <ele>2469</ele>
        <time>2015-09-03T13:02:23.6Z</time>
      </trkpt>
      <trkpt lat="44.90121" lon="6.74734">
        <ele>2466</ele>
        <time>2015-09-03T13:02:35.386Z</time>
      </trkpt>
      <trkpt lat="44.90077" lon="6.7476">
        <ele>2446</ele>
        <time>2015-09-03T13:03:24.381Z</time>
      </trkpt>
      <trkpt lat="44.90055" lon="6.74772">
        <ele>2436</ele>
        <time>2015-09-03T13:03:55.381Z</time>
      </trkpt>
      <trkpt lat="44.90048" lon="6.7479">
        <ele>2430</ele>
        <time>2015-09-03T13:04:05.384Z</time>
      </trkpt>
      <trkpt lat="44.90039" lon="6.74775">
        <ele>2425</ele>
        <time>2015-09-03T13:04:21.38Z</time>
      </trkpt>
      <trkpt lat="44.90027" lon="6.74783">
        <ele>2422</ele>
        <time>2015-09-03T13:04:38.484Z</time>
      </trkpt>
      <trkpt lat="44.9002" lon="6.748">
        <ele>2419</ele>
        <time>2015-09-03T13:04:50.389Z</time>
      </trkpt>
      <trkpt lat="44.90011" lon="6.74815">
        <ele>2413</ele>
        <time>2015-09-03T13:05:10.383Z</time>
      </trkpt>
      <trkpt lat="44.89992" lon="6.74845">
        <ele>2395</ele>
        <time>2015-09-03T13:06:02.386Z</time>
      </trkpt>
      <trkpt lat="44.89979" lon="6.74835">
        <ele>2389</ele>
        <time>2015-09-03T13:06:16.444Z</time>
      </trkpt>
      <trkpt lat="44.89965" lon="6.7483">
        <ele>2386</ele>
        <time>2015-09-03T13:06:30.381Z</time>
      </trkpt>
      <trkpt lat="44.89952" lon="6.74836">
        <ele>2378</ele>
        <time>2015-09-03T13:06:43.385Z</time>
      </trkpt>
      <trkpt lat="44.89944" lon="6.74858">
        <ele>2375</ele>
        <time>2015-09-03T13:06:56.383Z</time>
      </trkpt>
      <trkpt lat="44.89908" lon="6.74914">
        <ele>2367</ele>
        <time>2015-09-03T13:07:34.386Z</time>
      </trkpt>
      <trkpt lat="44.89894" lon="6.74922">
        <ele>2364</ele>
        <time>2015-09-03T13:07:44.381Z</time>
      </trkpt>
      <trkpt lat="44.89875" lon="6.7493">
        <ele>2364</ele>
        <time>2015-09-03T13:07:59.385Z</time>
      </trkpt>
      <trkpt lat="44.89847" lon="6.74962">
        <ele>2361</ele>
        <time>2015-09-03T13:08:25.385Z</time>
      </trkpt>
      <trkpt lat="44.89778" lon="6.75003">
        <ele>2353</ele>
        <time>2015-09-03T13:09:21.381Z</time>
      </trkpt>
      <trkpt lat="44.89765" lon="6.75009">
        <ele>2349</ele>
        <time>2015-09-03T13:09:31.38Z</time>
      </trkpt>
      <trkpt lat="44.89698" lon="6.75029">
        <ele>2346</ele>
        <time>2015-09-03T13:10:22.385Z</time>
      </trkpt>
      <trkpt lat="44.89677" lon="6.75038">
        <ele>2348</ele>
        <time>2015-09-03T13:10:41.385Z</time>
      </trkpt>
      <trkpt lat="44.8967" lon="6.75021">
        <ele>2351</ele>
        <time>2015-09-03T13:10:52.383Z</time>
      </trkpt>
      <trkpt lat="44.89666" lon="6.74991">
        <ele>2355</ele>
        <time>2015-09-03T13:11:13.39Z</time>
      </trkpt>
      <trkpt lat="44.89654" lon="6.74978">
        <ele>2353</ele>
        <time>2015-09-03T13:11:27.385Z</time>
      </trkpt>
      <trkpt lat="44.89641" lon="6.74968">
        <ele>2353</ele>
        <time>2015-09-03T13:11:39.386Z</time>
      </trkpt>
      <trkpt lat="44.89627" lon="6.74968">
        <ele>2352</ele>
        <time>2015-09-03T13:11:51.385Z</time>
      </trkpt>
      <trkpt lat="44.89606" lon="6.74963">
        <ele>2350</ele>
        <time>2015-09-03T13:12:07.389Z</time>
      </trkpt>
      <trkpt lat="44.89572" lon="6.74953">
        <ele>2349</ele>
        <time>2015-09-03T13:12:48.386Z</time>
      </trkpt>
      <trkpt lat="44.8956" lon="6.74965">
        <ele>2353</ele>
        <time>2015-09-03T13:13:01.386Z</time>
      </trkpt>
      <trkpt lat="44.8955" lon="6.74982">
        <ele>2350</ele>
        <time>2015-09-03T13:13:14.385Z</time>
      </trkpt>
      <trkpt lat="44.89549" lon="6.75006">
        <ele>2347</ele>
        <time>2015-09-03T13:13:27.381Z</time>
      </trkpt>
      <trkpt lat="44.89536" lon="6.75014">
        <ele>2340</ele>
        <time>2015-09-03T13:13:50.383Z</time>
      </trkpt>
      <trkpt lat="44.89523" lon="6.75022">
        <ele>2339</ele>
        <time>2015-09-03T13:14:00.386Z</time>
      </trkpt>
      <trkpt lat="44.89508" lon="6.75042">
        <ele>2335</ele>
        <time>2015-09-03T13:14:15.388Z</time>
      </trkpt>
      <trkpt lat="44.89498" lon="6.75077">
        <ele>2334</ele>
        <time>2015-09-03T13:14:36.384Z</time>
      </trkpt>
      <trkpt lat="44.8949" lon="6.7511">
        <ele>2325</ele>
        <time>2015-09-03T13:14:56.385Z</time>
      </trkpt>
      <trkpt lat="44.8948" lon="6.75125">
        <ele>2323</ele>
        <time>2015-09-03T13:15:06.383Z</time>
      </trkpt>
      <trkpt lat="44.89461" lon="6.75139">
        <ele>2318</ele>
        <time>2015-09-03T13:15:20.39Z</time>
      </trkpt>
      <trkpt lat="44.89444" lon="6.75172">
        <ele>2313</ele>
        <time>2015-09-03T13:15:41.384Z</time>
      </trkpt>
      <trkpt lat="44.89431" lon="6.75181">
        <ele>2307</ele>
        <time>2015-09-03T13:16:02.385Z</time>
      </trkpt>
      <trkpt lat="44.8942" lon="6.75195">
        <ele>2306</ele>
        <time>2015-09-03T13:16:13.384Z</time>
      </trkpt>
      <trkpt lat="44.89403" lon="6.75204">
        <ele>2305</ele>
        <time>2015-09-03T13:16:25.385Z</time>
      </trkpt>
      <trkpt lat="44.89392" lon="6.75193">
        <ele>2302</ele>
        <time>2015-09-03T13:16:34.38Z</time>
      </trkpt>
      <trkpt lat="44.89384" lon="6.75177">
        <ele>2302</ele>
        <time>2015-09-03T13:16:45.383Z</time>
      </trkpt>
      <trkpt lat="44.89368" lon="6.75175">
        <ele>2300</ele>
        <time>2015-09-03T13:16:55.381Z</time>
      </trkpt>
      <trkpt lat="44.89355" lon="6.75186">
        <ele>2300</ele>
        <time>2015-09-03T13:17:06.385Z</time>
      </trkpt>
      <trkpt lat="44.8934" lon="6.75194">
        <ele>2300</ele>
        <time>2015-09-03T13:17:17.599Z</time>
      </trkpt>
      <trkpt lat="44.89288" lon="6.75211">
        <ele>2289</ele>
        <time>2015-09-03T13:17:53.383Z</time>
      </trkpt>
      <trkpt lat="44.89253" lon="6.75241">
        <ele>2287</ele>
        <time>2015-09-03T13:18:23.383Z</time>
      </trkpt>
      <trkpt lat="44.89231" lon="6.75247">
        <ele>2285</ele>
        <time>2015-09-03T13:18:39.384Z</time>
      </trkpt>
      <trkpt lat="44.8922" lon="6.75263">
        <ele>2283</ele>
        <time>2015-09-03T13:18:50.384Z</time>
      </trkpt>
      <trkpt lat="44.89207" lon="6.75282">
        <ele>2280</ele>
        <time>2015-09-03T13:19:04.39Z</time>
      </trkpt>
      <trkpt lat="44.89154" lon="6.75322">
        <ele>2268</ele>
        <time>2015-09-03T13:20:05.383Z</time>
      </trkpt>
      <trkpt lat="44.89135" lon="6.75331">
        <ele>2261</ele>
        <time>2015-09-03T13:20:18.388Z</time>
      </trkpt>
      <trkpt lat="44.8911" lon="6.75332">
        <ele>2254</ele>
        <time>2015-09-03T13:20:34.384Z</time>
      </trkpt>
      <trkpt lat="44.89097" lon="6.75327">
        <ele>2252</ele>
        <time>2015-09-03T13:20:43.384Z</time>
      </trkpt>
      <trkpt lat="44.89089" lon="6.7531">
        <ele>2250</ele>
        <time>2015-09-03T13:20:55.39Z</time>
      </trkpt>
      <trkpt lat="44.89072" lon="6.75297">
        <ele>2243</ele>
        <time>2015-09-03T13:21:15.385Z</time>
      </trkpt>
      <trkpt lat="44.89073" lon="6.75316">
        <ele>2241</ele>
        <time>2015-09-03T13:21:24.385Z</time>
      </trkpt>
      <trkpt lat="44.89058" lon="6.75313">
        <ele>2236</ele>
        <time>2015-09-03T13:21:41.39Z</time>
      </trkpt>
      <trkpt lat="44.89044" lon="6.7531">
        <ele>2231</ele>
        <time>2015-09-03T13:21:51.389Z</time>
      </trkpt>
      <trkpt lat="44.89023" lon="6.75337">
        <ele>2223</ele>
        <time>2015-09-03T13:22:10.384Z</time>
      </trkpt>
      <trkpt lat="44.88997" lon="6.75382">
        <ele>2219</ele>
        <time>2015-09-03T13:22:37.384Z</time>
      </trkpt>
      <trkpt lat="44.88983" lon="6.75386">
        <ele>2215</ele>
        <time>2015-09-03T13:22:47.389Z</time>
      </trkpt>
      <trkpt lat="44.88968" lon="6.7538">
        <ele>2212</ele>
        <time>2015-09-03T13:22:58.384Z</time>
      </trkpt>
      <trkpt lat="44.88954" lon="6.75384">
        <ele>2211</ele>
        <time>2015-09-03T13:23:06.388Z</time>
      </trkpt>
      <trkpt lat="44.88942" lon="6.75396">
        <ele>2211</ele>
        <time>2015-09-03T13:23:16.385Z</time>
      </trkpt>
      <trkpt lat="44.88916" lon="6.75437">
        <ele>2204</ele>
        <time>2015-09-03T13:23:41.441Z</time>
      </trkpt>
      <trkpt lat="44.88888" lon="6.75462">
        <ele>2196</ele>
        <time>2015-09-03T13:24:05.39Z</time>
      </trkpt>
      <trkpt lat="44.88877" lon="6.75473">
        <ele>2190</ele>
        <time>2015-09-03T13:24:19.386Z</time>
      </trkpt>
      <trkpt lat="44.88857" lon="6.75468">
        <ele>2184</ele>
        <time>2015-09-03T13:24:32.385Z</time>
      </trkpt>
      <trkpt lat="44.88828" lon="6.75451">
        <ele>2183</ele>
        <time>2015-09-03T13:24:53.388Z</time>
      </trkpt>
      <trkpt lat="44.88813" lon="6.75433">
        <ele>2177</ele>
        <time>2015-09-03T13:25:10.384Z</time>
      </trkpt>
      <trkpt lat="44.88801" lon="6.75445">
        <ele>2176</ele>
        <time>2015-09-03T13:25:22.384Z</time>
      </trkpt>
      <trkpt lat="44.88794" lon="6.75464">
        <ele>2175</ele>
        <time>2015-09-03T13:25:31.384Z</time>
      </trkpt>
      <trkpt lat="44.88782" lon="6.75525">
        <ele>2172</ele>
        <time>2015-09-03T13:26:05.383Z</time>
      </trkpt>
      <trkpt lat="44.88786" lon="6.75629">
        <ele>2164</ele>
        <time>2015-09-03T13:27:01.388Z</time>
      </trkpt>
      <trkpt lat="44.88788" lon="6.75656">
        <ele>2161</ele>
        <time>2015-09-03T13:27:14.383Z</time>
      </trkpt>
      <trkpt lat="44.88774" lon="6.7565">
        <ele>2156</ele>
        <time>2015-09-03T13:27:26.384Z</time>
      </trkpt>
      <trkpt lat="44.88755" lon="6.75651">
        <ele>2152</ele>
        <time>2015-09-03T13:27:41.383Z</time>
      </trkpt>
      <trkpt lat="44.88725" lon="6.75644">
        <ele>2143</ele>
        <time>2015-09-03T13:28:06.385Z</time>
      </trkpt>
      <trkpt lat="44.88712" lon="6.75635">
        <ele>2138</ele>
        <time>2015-09-03T13:28:15.386Z</time>
      </trkpt>
      <trkpt lat="44.887" lon="6.75624">
        <ele>2135</ele>
        <time>2015-09-03T13:28:26.39Z</time>
      </trkpt>
      <trkpt lat="44.88685" lon="6.75615">
        <ele>2130</ele>
        <time>2015-09-03T13:28:40.391Z</time>
      </trkpt>
      <trkpt lat="44.88676" lon="6.7563">
        <ele>2129</ele>
        <time>2015-09-03T13:28:52.385Z</time>
      </trkpt>
      <trkpt lat="44.88662" lon="6.75624">
        <ele>2125</ele>
        <time>2015-09-03T13:29:02.395Z</time>
      </trkpt>
      <trkpt lat="44.88632" lon="6.75589">
        <ele>2120</ele>
        <time>2015-09-03T13:29:27.384Z</time>
      </trkpt>
      <trkpt lat="44.8861" lon="6.75551">
        <ele>2116</ele>
        <time>2015-09-03T13:29:48.39Z</time>
      </trkpt>
      <trkpt lat="44.88594" lon="6.75542">
        <ele>2110</ele>
        <time>2015-09-03T13:30:00.393Z</time>
      </trkpt>
      <trkpt lat="44.88585" lon="6.75528">
        <ele>2109</ele>
        <time>2015-09-03T13:30:13.49Z</time>
      </trkpt>
      <trkpt lat="44.88571" lon="6.7553">
        <ele>2110</ele>
        <time>2015-09-03T13:30:24.385Z</time>
      </trkpt>
      <trkpt lat="44.88558" lon="6.75521">
        <ele>2111</ele>
        <time>2015-09-03T13:30:38.385Z</time>
      </trkpt>
      <trkpt lat="44.88544" lon="6.75527">
        <ele>2111</ele>
        <time>2015-09-03T13:30:53.388Z</time>
      </trkpt>
      <trkpt lat="44.8853" lon="6.75527">
        <ele>2111</ele>
        <time>2015-09-03T13:31:01.389Z</time>
      </trkpt>
      <trkpt lat="44.88516" lon="6.75529">
        <ele>2110</ele>
        <time>2015-09-03T13:31:14.385Z</time>
      </trkpt>
      <trkpt lat="44.8852" lon="6.75509">
        <ele>2111</ele>
        <time>2015-09-03T13:31:44.391Z</time>
      </trkpt>
      <trkpt lat="44.88509" lon="6.75494">
        <ele>2109</ele>
        <time>2015-09-03T13:31:55.391Z</time>
      </trkpt>
      <trkpt lat="44.88495" lon="6.75488">
        <ele>2108</ele>
        <time>2015-09-03T13:32:04.385Z</time>
      </trkpt>
      <trkpt lat="44.88484" lon="6.75475">
        <ele>2112</ele>
        <time>2015-09-03T13:32:16.393Z</time>
      </trkpt>
      <trkpt lat="44.88446" lon="6.75422">
        <ele>2110</ele>
        <time>2015-09-03T13:32:54.381Z</time>
      </trkpt>
      <trkpt lat="44.88439" lon="6.75404">
        <ele>2110</ele>
        <time>2015-09-03T13:33:06.386Z</time>
      </trkpt>
      <trkpt lat="44.88427" lon="6.75362">
        <ele>2109</ele>
        <time>2015-09-03T13:33:30.39Z</time>
      </trkpt>
      <trkpt lat="44.88419" lon="6.75339">
        <ele>2104</ele>
        <time>2015-09-03T13:33:43.385Z</time>
      </trkpt>
      <trkpt lat="44.88395" lon="6.75314">
        <ele>2098</ele>
        <time>2015-09-03T13:34:16.34Z</time>
      </trkpt>
      <trkpt lat="44.88381" lon="6.75328">
        <ele>2092</ele>
        <time>2015-09-03T13:34:31.339Z</time>
      </trkpt>
      <trkpt lat="44.88379" lon="6.75348">
        <ele>2090</ele>
        <time>2015-09-03T13:34:43.34Z</time>
      </trkpt>
      <trkpt lat="44.8837" lon="6.75364">
        <ele>2083</ele>
        <time>2015-09-03T13:34:57.34Z</time>
      </trkpt>
      <trkpt lat="44.88355" lon="6.75372">
        <ele>2073</ele>
        <time>2015-09-03T13:35:20.34Z</time>
      </trkpt>
      <trkpt lat="44.8834" lon="6.75375">
        <ele>2069</ele>
        <time>2015-09-03T13:35:34.34Z</time>
      </trkpt>
      <trkpt lat="44.88325" lon="6.75379">
        <ele>2061</ele>
        <time>2015-09-03T13:35:51.34Z</time>
      </trkpt>
      <trkpt lat="44.88311" lon="6.75387">
        <ele>2057</ele>
        <time>2015-09-03T13:36:04.34Z</time>
      </trkpt>
      <trkpt lat="44.88299" lon="6.75376">
        <ele>2052</ele>
        <time>2015-09-03T13:36:18.34Z</time>
      </trkpt>
      <trkpt lat="44.88286" lon="6.7537">
        <ele>2048</ele>
        <time>2015-09-03T13:36:26.34Z</time>
      </trkpt>
      <trkpt lat="44.88266" lon="6.75361">
        <ele>2043</ele>
        <time>2015-09-03T13:36:38.34Z</time>
      </trkpt>
      <trkpt lat="44.88256" lon="6.75348">
        <ele>2038</ele>
        <time>2015-09-03T13:36:48.341Z</time>
      </trkpt>
      <trkpt lat="44.8825" lon="6.7533">
        <ele>2034</ele>
        <time>2015-09-03T13:37:00.35Z</time>
      </trkpt>
      <trkpt lat="44.88229" lon="6.75315">
        <ele>2027</ele>
        <time>2015-09-03T13:37:18.341Z</time>
      </trkpt>
      <trkpt lat="44.88213" lon="6.75313">
        <ele>2022</ele>
        <time>2015-09-03T13:37:30.339Z</time>
      </trkpt>
      <trkpt lat="44.882" lon="6.75304">
        <ele>2018</ele>
        <time>2015-09-03T13:37:41.343Z</time>
      </trkpt>
      <trkpt lat="44.88187" lon="6.75298">
        <ele>2011</ele>
        <time>2015-09-03T13:37:55.34Z</time>
      </trkpt>
      <trkpt lat="44.88175" lon="6.75287">
        <ele>2010</ele>
        <time>2015-09-03T13:38:03.336Z</time>
      </trkpt>
      <trkpt lat="44.8816" lon="6.75268">
        <ele>2002</ele>
        <time>2015-09-03T13:38:25.34Z</time>
      </trkpt>
      <trkpt lat="44.88153" lon="6.75238">
        <ele>1995</ele>
        <time>2015-09-03T13:38:50.338Z</time>
      </trkpt>
      <trkpt lat="44.88141" lon="6.75227">
        <ele>1983</ele>
        <time>2015-09-03T13:39:15.339Z</time>
      </trkpt>
      <trkpt lat="44.88128" lon="6.7522">
        <ele>1978</ele>
        <time>2015-09-03T13:39:31.341Z</time>
      </trkpt>
      <trkpt lat="44.88112" lon="6.75217">
        <ele>1975</ele>
        <time>2015-09-03T13:39:42.34Z</time>
      </trkpt>
      <trkpt lat="44.88091" lon="6.75204">
        <ele>1972</ele>
        <time>2015-09-03T13:39:57.341Z</time>
      </trkpt>
      <trkpt lat="44.8808" lon="6.7519">
        <ele>1965</ele>
        <time>2015-09-03T13:40:20.34Z</time>
      </trkpt>
      <trkpt lat="44.88068" lon="6.75178">
        <ele>1965</ele>
        <time>2015-09-03T13:40:33.343Z</time>
      </trkpt>
      <trkpt lat="44.88051" lon="6.75166">
        <ele>1963</ele>
        <time>2015-09-03T13:40:48.344Z</time>
      </trkpt>
      <trkpt lat="44.88035" lon="6.75158">
        <ele>1960</ele>
        <time>2015-09-03T13:40:58.384Z</time>
      </trkpt>
      <trkpt lat="44.88021" lon="6.75152">
        <ele>1959</ele>
        <time>2015-09-03T13:41:09.339Z</time>
      </trkpt>
      <trkpt lat="44.88019" lon="6.75132">
        <ele>1962</ele>
        <time>2015-09-03T13:41:23.364Z</time>
      </trkpt>
      <trkpt lat="44.88017" lon="6.75111">
        <ele>1961</ele>
        <time>2015-09-03T13:41:33.41Z</time>
      </trkpt>
      <trkpt lat="44.88015" lon="6.7506">
        <ele>1958</ele>
        <time>2015-09-03T13:42:05.345Z</time>
      </trkpt>
      <trkpt lat="44.87999" lon="6.75011">
        <ele>1960</ele>
        <time>2015-09-03T13:42:35.341Z</time>
      </trkpt>
      <trkpt lat="44.87984" lon="6.74991">
        <ele>1958</ele>
        <time>2015-09-03T13:42:50.34Z</time>
      </trkpt>
      <trkpt lat="44.87974" lon="6.74959">
        <ele>1957</ele>
        <time>2015-09-03T13:43:08.344Z</time>
      </trkpt>
      <trkpt lat="44.87969" lon="6.74941">
        <ele>1954</ele>
        <time>2015-09-03T13:43:22.339Z</time>
      </trkpt>
      <trkpt lat="44.87967" lon="6.74912">
        <ele>1956</ele>
        <time>2015-09-03T13:43:37.265Z</time>
      </trkpt>
      <trkpt lat="44.87964" lon="6.74892">
        <ele>1955</ele>
        <time>2015-09-03T13:43:47.26Z</time>
      </trkpt>
      <trkpt lat="44.87955" lon="6.74848">
        <ele>1953</ele>
        <time>2015-09-03T13:44:12.261Z</time>
      </trkpt>
      <trkpt lat="44.87923" lon="6.74756">
        <ele>1943</ele>
        <time>2015-09-03T13:45:05.263Z</time>
      </trkpt>
      <trkpt lat="44.87909" lon="6.74748">
        <ele>1938</ele>
        <time>2015-09-03T13:45:17.264Z</time>
      </trkpt>
      <trkpt lat="44.87883" lon="6.74728">
        <ele>1942</ele>
        <time>2015-09-03T13:45:40.26Z</time>
      </trkpt>
      <trkpt lat="44.87866" lon="6.74707">
        <ele>1941</ele>
        <time>2015-09-03T13:45:57.269Z</time>
      </trkpt>
      <trkpt lat="44.87841" lon="6.74681">
        <ele>1941</ele>
        <time>2015-09-03T13:46:22.264Z</time>
      </trkpt>
      <trkpt lat="44.87823" lon="6.7466">
        <ele>1940</ele>
        <time>2015-09-03T13:46:39.264Z</time>
      </trkpt>
      <trkpt lat="44.87814" lon="6.74631">
        <ele>1944</ele>
        <time>2015-09-03T13:46:57.263Z</time>
      </trkpt>
      <trkpt lat="44.87816" lon="6.74612">
        <ele>1941</ele>
        <time>2015-09-03T13:47:10.264Z</time>
      </trkpt>
      <trkpt lat="44.87824" lon="6.74569">
        <ele>1946</ele>
        <time>2015-09-03T13:47:34.263Z</time>
      </trkpt>
      <trkpt lat="44.87835" lon="6.74546">
        <ele>1947</ele>
        <time>2015-09-03T13:48:34.275Z</time>
      </trkpt>
      <trkpt lat="44.87835" lon="6.74546">
        <ele>1947</ele>
        <time>2015-09-03T13:49:35.266Z</time>
      </trkpt>
      <trkpt lat="44.87835" lon="6.74547">
        <ele>1947</ele>
        <time>2015-09-03T13:50:35.266Z</time>
      </trkpt>
      <trkpt lat="44.87835" lon="6.74547">
        <ele>1941</ele>
        <time>2015-09-03T13:51:35.268Z</time>
      </trkpt>
      <trkpt lat="44.87835" lon="6.74547">
        <ele>1941</ele>
        <time>2015-09-03T13:52:35.449Z</time>
      </trkpt>
      <trkpt lat="44.87835" lon="6.74547">
        <ele>1941</ele>
        <time>2015-09-03T13:52:54.459Z</time>
      </trkpt>
    </trkseg>
  </trk>
</gpx>